sensor_id;sensor_type;location;lat;lon;timestamp;pressure;altitude;pressure_sealevel;temperature;humidity
48810;BME280;40070;47.322;18.784;2023-04-26T00:00:14;996.60;;;10.37;65.43
48810;BME280;40070;47.322;18.784;2023-04-26T00:02:15;996.65;;;10.24;65.91
48810;BME280;40070;47.322;18.784;2023-04-26T00:04:16;996.64;;;10.23;66.05
48810;BME280;40070;47.322;18.784;2023-04-26T00:06:17;996.59;;;10.35;65.66
48810;BME280;40070;47.322;18.784;2023-04-26T00:08:18;996.67;;;10.21;65.91
48810;BME280;40070;47.322;18.784;2023-04-26T00:10:19;996.62;;;10.12;66.11
48810;BME280;40070;47.322;18.784;2023-04-26T00:12:20;996.62;;;10.07;66.26
48810;BME280;40070;47.322;18.784;2023-04-26T00:14:20;996.63;;;10.00;66.53
48810;BME280;40070;47.322;18.784;2023-04-26T00:16:21;996.70;;;10.06;66.61
48810;BME280;40070;47.322;18.784;2023-04-26T00:18:22;996.69;;;10.07;66.56
48810;BME280;40070;47.322;18.784;2023-04-26T00:20:23;996.72;;;10.27;65.84
48810;BME280;40070;47.322;18.784;2023-04-26T00:22:24;996.71;;;10.03;66.53
48810;BME280;40070;47.322;18.784;2023-04-26T00:24:25;996.71;;;10.01;66.46
48810;BME280;40070;47.322;18.784;2023-04-26T00:26:26;996.72;;;10.09;66.48
48810;BME280;40070;47.322;18.784;2023-04-26T00:28:29;996.73;;;9.88;67.01
48810;BME280;40070;47.322;18.784;2023-04-26T00:30:30;996.72;;;9.84;67.22
48810;BME280;40070;47.322;18.784;2023-04-26T00:32:31;996.74;;;9.74;67.38
48810;BME280;40070;47.322;18.784;2023-04-26T00:34:35;996.88;;;9.61;67.91
48810;BME280;40070;47.322;18.784;2023-04-26T00:36:37;996.84;;;9.76;67.49
48810;BME280;40070;47.322;18.784;2023-04-26T00:38:37;996.84;;;9.61;67.96
48810;BME280;40070;47.322;18.784;2023-04-26T00:40:38;996.82;;;9.75;67.51
48810;BME280;40070;47.322;18.784;2023-04-26T00:42:39;996.88;;;9.66;67.67
48810;BME280;40070;47.322;18.784;2023-04-26T00:44:40;996.88;;;9.70;67.41
48810;BME280;40070;47.322;18.784;2023-04-26T00:46:41;996.89;;;9.61;67.72
48810;BME280;40070;47.322;18.784;2023-04-26T00:48:42;996.93;;;9.72;67.41
48810;BME280;40070;47.322;18.784;2023-04-26T00:50:43;996.92;;;9.99;66.63
48810;BME280;40070;47.322;18.784;2023-04-26T00:52:45;996.91;;;9.94;66.56
48810;BME280;40070;47.322;18.784;2023-04-26T00:54:47;996.85;;;9.77;67.06
48810;BME280;40070;47.322;18.784;2023-04-26T00:56:48;996.90;;;9.76;67.15
48810;BME280;40070;47.322;18.784;2023-04-26T00:58:49;996.95;;;9.74;67.22
48810;BME280;40070;47.322;18.784;2023-04-26T01:00:50;996.89;;;9.78;67.13
48810;BME280;40070;47.322;18.784;2023-04-26T01:02:51;996.99;;;9.71;67.30
48810;BME280;40070;47.322;18.784;2023-04-26T01:04:52;997.01;;;9.67;67.28
48810;BME280;40070;47.322;18.784;2023-04-26T01:06:53;997.00;;;9.70;67.32
48810;BME280;40070;47.322;18.784;2023-04-26T01:08:54;996.99;;;9.87;66.83
48810;BME280;40070;47.322;18.784;2023-04-26T01:10:56;996.98;;;9.75;66.79
48810;BME280;40070;47.322;18.784;2023-04-26T01:12:58;997.00;;;9.76;67.02
48810;BME280;40070;47.322;18.784;2023-04-26T01:14:59;997.04;;;9.74;66.94
48810;BME280;40070;47.322;18.784;2023-04-26T01:17:02;997.05;;;9.69;66.86
48810;BME280;40070;47.322;18.784;2023-04-26T01:19:09;997.09;;;9.68;66.97
48810;BME280;40070;47.322;18.784;2023-04-26T01:21:11;997.09;;;9.62;67.10
48810;BME280;40070;47.322;18.784;2023-04-26T01:23:11;997.08;;;9.75;66.59
48810;BME280;40070;47.322;18.784;2023-04-26T01:25:12;997.13;;;9.66;66.81
48810;BME280;40070;47.322;18.784;2023-04-26T01:27:14;997.09;;;9.63;66.56
48810;BME280;40070;47.322;18.784;2023-04-26T01:29:18;997.20;;;9.58;66.75
48810;BME280;40070;47.322;18.784;2023-04-26T01:31:19;997.23;;;9.54;66.85
48810;BME280;40070;47.322;18.784;2023-04-26T01:33:20;997.20;;;9.51;66.68
48810;BME280;40070;47.322;18.784;2023-04-26T01:35:21;997.21;;;9.64;66.27
48810;BME280;40070;47.322;18.784;2023-04-26T01:37:22;997.27;;;9.51;66.46
48810;BME280;40070;47.322;18.784;2023-04-26T01:39:23;997.26;;;9.60;66.19
48810;BME280;40070;47.322;18.784;2023-04-26T01:41:24;997.31;;;9.59;66.43
48810;BME280;40070;47.322;18.784;2023-04-26T01:43:25;997.36;;;9.59;66.27
48810;BME280;40070;47.322;18.784;2023-04-26T01:45:26;997.37;;;9.80;65.82
48810;BME280;40070;47.322;18.784;2023-04-26T01:47:27;997.37;;;9.79;65.78
48810;BME280;40070;47.322;18.784;2023-04-26T01:49:27;997.39;;;9.81;65.58
48810;BME280;40070;47.322;18.784;2023-04-26T01:51:28;997.35;;;9.89;65.42
48810;BME280;40070;47.322;18.784;2023-04-26T01:53:29;997.37;;;10.00;65.19
48810;BME280;40070;47.322;18.784;2023-04-26T01:55:30;997.38;;;9.82;65.46
48810;BME280;40070;47.322;18.784;2023-04-26T01:57:31;997.38;;;9.80;65.71
48810;BME280;40070;47.322;18.784;2023-04-26T01:59:32;997.33;;;9.73;65.86
48810;BME280;40070;47.322;18.784;2023-04-26T02:01:33;997.34;;;9.67;66.25
48810;BME280;40070;47.322;18.784;2023-04-26T02:03:35;997.36;;;9.71;66.16
48810;BME280;40070;47.322;18.784;2023-04-26T02:05:36;997.35;;;9.67;66.44
48810;BME280;40070;47.322;18.784;2023-04-26T02:07:37;997.41;;;9.50;67.01
48810;BME280;40070;47.322;18.784;2023-04-26T02:09:38;997.39;;;9.60;66.90
48810;BME280;40070;47.322;18.784;2023-04-26T02:11:39;997.41;;;9.87;66.06
48810;BME280;40070;47.322;18.784;2023-04-26T02:13:40;997.37;;;9.77;66.14
48810;BME280;40070;47.322;18.784;2023-04-26T02:15:44;997.37;;;9.80;66.13
48810;BME280;40070;47.322;18.784;2023-04-26T02:17:45;997.43;;;9.68;66.48
48810;BME280;40070;47.322;18.784;2023-04-26T02:19:46;997.45;;;9.76;66.21
48810;BME280;40070;47.322;18.784;2023-04-26T02:21:54;997.49;;;9.88;65.86
48810;BME280;40070;47.322;18.784;2023-04-26T02:23:55;997.56;;;9.85;65.99
48810;BME280;40070;47.322;18.784;2023-04-26T02:25:56;997.57;;;9.84;66.00
48810;BME280;40070;47.322;18.784;2023-04-26T02:27:57;997.60;;;9.87;65.74
48810;BME280;40070;47.322;18.784;2023-04-26T02:29:58;997.63;;;10.01;65.43
48810;BME280;40070;47.322;18.784;2023-04-26T02:31:59;997.65;;;9.77;65.93
48810;BME280;40070;47.322;18.784;2023-04-26T02:34:00;997.68;;;9.73;65.97
48810;BME280;40070;47.322;18.784;2023-04-26T02:36:01;997.67;;;9.75;65.91
48810;BME280;40070;47.322;18.784;2023-04-26T02:38:02;997.60;;;9.65;65.89
48810;BME280;40070;47.322;18.784;2023-04-26T02:40:04;997.69;;;9.66;65.95
48810;BME280;40070;47.322;18.784;2023-04-26T02:42:08;997.67;;;9.78;65.52
48810;BME280;40070;47.322;18.784;2023-04-26T02:44:09;997.63;;;9.86;65.09
48810;BME280;40070;47.322;18.784;2023-04-26T02:46:10;997.72;;;9.73;65.20
48810;BME280;40070;47.322;18.784;2023-04-26T02:48:11;997.80;;;9.69;65.34
48810;BME280;40070;47.322;18.784;2023-04-26T02:50:12;997.78;;;9.80;64.98
48810;BME280;40070;47.322;18.784;2023-04-26T02:52:13;997.87;;;9.70;65.16
48810;BME280;40070;47.322;18.784;2023-04-26T02:54:14;997.98;;;9.75;65.10
48810;BME280;40070;47.322;18.784;2023-04-26T02:56:14;997.96;;;9.54;65.50
48810;BME280;40070;47.322;18.784;2023-04-26T02:58:15;997.99;;;9.57;65.39
48810;BME280;40070;47.322;18.784;2023-04-26T03:00:16;998.05;;;9.52;65.67
48810;BME280;40070;47.322;18.784;2023-04-26T03:02:17;998.08;;;9.57;65.63
48810;BME280;40070;47.322;18.784;2023-04-26T03:04:18;998.10;;;9.75;65.00
48810;BME280;40070;47.322;18.784;2023-04-26T03:06:19;998.10;;;9.82;64.66
48810;BME280;40070;47.322;18.784;2023-04-26T03:08:20;998.09;;;9.97;64.13
48810;BME280;40070;47.322;18.784;2023-04-26T03:10:21;998.10;;;9.96;64.05
48810;BME280;40070;47.322;18.784;2023-04-26T03:12:22;998.15;;;9.76;64.38
48810;BME280;40070;47.322;18.784;2023-04-26T03:14:23;998.18;;;9.90;64.16
48810;BME280;40070;47.322;18.784;2023-04-26T03:16:26;998.21;;;9.81;64.24
48810;BME280;40070;47.322;18.784;2023-04-26T03:18:27;998.24;;;9.81;63.96
48810;BME280;40070;47.322;18.784;2023-04-26T03:20:28;998.26;;;9.52;65.07
48810;BME280;40070;47.322;18.784;2023-04-26T03:22:29;998.26;;;9.67;64.38
48810;BME280;40070;47.322;18.784;2023-04-26T03:24:29;998.28;;;9.62;64.69
48810;BME280;40070;47.322;18.784;2023-04-26T03:26:30;998.28;;;9.54;64.73
48810;BME280;40070;47.322;18.784;2023-04-26T03:28:31;998.32;;;9.54;64.89
48810;BME280;40070;47.322;18.784;2023-04-26T03:30:32;998.31;;;9.64;64.65
48810;BME280;40070;47.322;18.784;2023-04-26T03:32:33;998.30;;;9.84;63.87
48810;BME280;40070;47.322;18.784;2023-04-26T03:34:34;998.36;;;9.65;64.24
48810;BME280;40070;47.322;18.784;2023-04-26T03:36:35;998.38;;;9.73;64.28
48810;BME280;40070;47.322;18.784;2023-04-26T03:38:36;998.34;;;9.92;63.63
48810;BME280;40070;47.322;18.784;2023-04-26T03:40:37;998.37;;;10.01;63.07
48810;BME280;40070;47.322;18.784;2023-04-26T03:42:38;998.36;;;10.27;62.18
48810;BME280;40070;47.322;18.784;2023-04-26T03:44:39;998.32;;;10.39;61.71
48810;BME280;40070;47.322;18.784;2023-04-26T03:46:39;998.35;;;10.25;62.06
48810;BME280;40070;47.322;18.784;2023-04-26T03:48:40;998.42;;;10.29;61.17
48810;BME280;40070;47.322;18.784;2023-04-26T03:50:41;998.51;;;9.96;62.31
48810;BME280;40070;47.322;18.784;2023-04-26T03:52:42;998.55;;;10.08;61.87
48810;BME280;40070;47.322;18.784;2023-04-26T03:54:43;998.56;;;10.01;61.93
48810;BME280;40070;47.322;18.784;2023-04-26T03:56:44;998.62;;;9.49;63.67
48810;BME280;40070;47.322;18.784;2023-04-26T03:58:45;998.57;;;9.71;63.06
48810;BME280;40070;47.322;18.784;2023-04-26T04:00:46;998.51;;;9.82;62.54
48810;BME280;40070;47.322;18.784;2023-04-26T04:02:47;998.59;;;9.90;62.21
48810;BME280;40070;47.322;18.784;2023-04-26T04:04:48;998.63;;;10.03;61.45
48810;BME280;40070;47.322;18.784;2023-04-26T04:06:49;998.66;;;9.86;61.94
48810;BME280;40070;47.322;18.784;2023-04-26T04:08:50;998.69;;;9.93;61.92
48810;BME280;40070;47.322;18.784;2023-04-26T04:10:51;998.78;;;9.95;61.76
48810;BME280;40070;47.322;18.784;2023-04-26T04:12:51;998.84;;;9.87;61.78
48810;BME280;40070;47.322;18.784;2023-04-26T04:14:52;998.83;;;10.08;61.44
48810;BME280;40070;47.322;18.784;2023-04-26T04:16:53;998.88;;;10.07;61.51
48810;BME280;40070;47.322;18.784;2023-04-26T04:18:54;998.94;;;9.93;62.13
48810;BME280;40070;47.322;18.784;2023-04-26T04:20:55;998.91;;;9.88;62.15
48810;BME280;40070;47.322;18.784;2023-04-26T04:22:56;998.97;;;9.90;61.99
48810;BME280;40070;47.322;18.784;2023-04-26T04:24:57;999.04;;;9.43;62.94
48810;BME280;40070;47.322;18.784;2023-04-26T04:26:58;999.07;;;9.30;63.34
48810;BME280;40070;47.322;18.784;2023-04-26T04:28:59;999.01;;;9.35;63.04
48810;BME280;40070;47.322;18.784;2023-04-26T04:30:59;999.01;;;8.85;64.46
48810;BME280;40070;47.322;18.784;2023-04-26T04:33:00;998.98;;;9.08;64.07
48810;BME280;40070;47.322;18.784;2023-04-26T04:35:01;998.97;;;9.05;64.11
48810;BME280;40070;47.322;18.784;2023-04-26T04:37:02;999.01;;;8.93;64.53
48810;BME280;40070;47.322;18.784;2023-04-26T04:39:03;999.04;;;8.96;64.63
48810;BME280;40070;47.322;18.784;2023-04-26T04:41:04;999.05;;;8.78;65.23
48810;BME280;40070;47.322;18.784;2023-04-26T04:43:05;999.02;;;8.73;65.39
48810;BME280;40070;47.322;18.784;2023-04-26T04:45:06;999.05;;;8.85;64.78
48810;BME280;40070;47.322;18.784;2023-04-26T04:47:07;999.05;;;9.00;64.36
48810;BME280;40070;47.322;18.784;2023-04-26T04:49:09;999.07;;;8.95;64.45
48810;BME280;40070;47.322;18.784;2023-04-26T04:51:10;999.11;;;9.03;64.33
48810;BME280;40070;47.322;18.784;2023-04-26T04:53:11;999.12;;;8.99;64.28
48810;BME280;40070;47.322;18.784;2023-04-26T04:55:12;999.13;;;8.93;64.12
48810;BME280;40070;47.322;18.784;2023-04-26T04:57:13;999.14;;;8.88;64.17
48810;BME280;40070;47.322;18.784;2023-04-26T04:59:14;999.09;;;9.05;64.10
48810;BME280;40070;47.322;18.784;2023-04-26T05:01:15;999.12;;;8.96;63.64
48810;BME280;40070;47.322;18.784;2023-04-26T05:03:16;999.16;;;9.09;63.41
48810;BME280;40070;47.322;18.784;2023-04-26T05:05:17;999.14;;;9.11;63.27
48810;BME280;40070;47.322;18.784;2023-04-26T05:07:18;999.22;;;8.94;63.68
48810;BME280;40070;47.322;18.784;2023-04-26T05:09:19;999.24;;;8.97;63.73
48810;BME280;40070;47.322;18.784;2023-04-26T05:11:20;999.23;;;9.06;63.50
48810;BME280;40070;47.322;18.784;2023-04-26T05:13:21;999.17;;;9.14;63.13
48810;BME280;40070;47.322;18.784;2023-04-26T05:15:21;999.21;;;9.29;62.66
48810;BME280;40070;47.322;18.784;2023-04-26T05:17:22;999.22;;;9.24;62.66
48810;BME280;40070;47.322;18.784;2023-04-26T05:19:23;999.22;;;9.27;61.96
48810;BME280;40070;47.322;18.784;2023-04-26T05:21:24;999.27;;;9.46;61.88
48810;BME280;40070;47.322;18.784;2023-04-26T05:23:25;999.31;;;9.58;61.63
48810;BME280;40070;47.322;18.784;2023-04-26T05:25:26;999.33;;;9.87;60.36
48810;BME280;40070;47.322;18.784;2023-04-26T05:27:27;999.34;;;9.74;60.22
48810;BME280;40070;47.322;18.784;2023-04-26T05:29:29;999.37;;;9.87;59.71
48810;BME280;40070;47.322;18.784;2023-04-26T05:31:30;999.29;;;9.82;59.15
48810;BME280;40070;47.322;18.784;2023-04-26T05:33:31;999.30;;;9.79;59.16
48810;BME280;40070;47.322;18.784;2023-04-26T05:35:32;999.25;;;9.57;59.68
48810;BME280;40070;47.322;18.784;2023-04-26T05:37:33;999.31;;;9.78;59.51
48810;BME280;40070;47.322;18.784;2023-04-26T05:39:34;999.34;;;9.69;59.11
48810;BME280;40070;47.322;18.784;2023-04-26T05:41:35;999.32;;;9.76;58.95
48810;BME280;40070;47.322;18.784;2023-04-26T05:43:36;999.38;;;9.88;58.69
48810;BME280;40070;47.322;18.784;2023-04-26T05:45:37;999.34;;;10.06;58.20
48810;BME280;40070;47.322;18.784;2023-04-26T05:47:38;999.29;;;10.10;57.77
48810;BME280;40070;47.322;18.784;2023-04-26T05:49:39;999.33;;;10.09;57.14
48810;BME280;40070;47.322;18.784;2023-04-26T05:51:40;999.38;;;9.97;57.17
48810;BME280;40070;47.322;18.784;2023-04-26T05:53:40;999.38;;;10.06;57.02
48810;BME280;40070;47.322;18.784;2023-04-26T05:55:41;999.40;;;10.03;56.55
48810;BME280;40070;47.322;18.784;2023-04-26T05:57:43;999.44;;;10.22;56.31
48810;BME280;40070;47.322;18.784;2023-04-26T05:59:43;999.44;;;10.44;55.78
48810;BME280;40070;47.322;18.784;2023-04-26T06:01:44;999.47;;;10.34;55.18
48810;BME280;40070;47.322;18.784;2023-04-26T06:03:45;999.52;;;10.40;55.27
48810;BME280;40070;47.322;18.784;2023-04-26T06:05:46;999.52;;;10.67;54.31
48810;BME280;40070;47.322;18.784;2023-04-26T06:07:47;999.54;;;10.63;53.62
48810;BME280;40070;47.322;18.784;2023-04-26T06:09:48;999.56;;;10.69;54.01
48810;BME280;40070;47.322;18.784;2023-04-26T06:11:49;999.49;;;10.94;53.41
48810;BME280;40070;47.322;18.784;2023-04-26T06:13:50;999.55;;;10.82;52.83
48810;BME280;40070;47.322;18.784;2023-04-26T06:15:52;999.62;;;10.92;52.21
48810;BME280;40070;47.322;18.784;2023-04-26T06:17:53;999.53;;;10.92;51.63
48810;BME280;40070;47.322;18.784;2023-04-26T06:19:53;999.55;;;11.05;50.46
48810;BME280;40070;47.322;18.784;2023-04-26T06:21:54;999.52;;;11.13;49.96
48810;BME280;40070;47.322;18.784;2023-04-26T06:23:55;999.48;;;11.06;47.77
48810;BME280;40070;47.322;18.784;2023-04-26T06:25:56;999.55;;;10.85;47.48
48810;BME280;40070;47.322;18.784;2023-04-26T06:27:57;999.54;;;10.93;47.51
48810;BME280;40070;47.322;18.784;2023-04-26T06:29:58;999.55;;;11.08;46.88
48810;BME280;40070;47.322;18.784;2023-04-26T06:31:59;999.59;;;11.11;47.29
48810;BME280;40070;47.322;18.784;2023-04-26T06:34:00;999.61;;;11.15;47.24
48810;BME280;40070;47.322;18.784;2023-04-26T06:36:01;999.66;;;11.24;47.54
48810;BME280;40070;47.322;18.784;2023-04-26T06:38:02;999.69;;;11.34;46.46
48810;BME280;40070;47.322;18.784;2023-04-26T06:40:03;999.68;;;11.11;45.86
48810;BME280;40070;47.322;18.784;2023-04-26T06:42:04;999.64;;;11.14;45.40
48810;BME280;40070;47.322;18.784;2023-04-26T06:44:05;999.67;;;10.99;45.63
48810;BME280;40070;47.322;18.784;2023-04-26T06:46:06;999.67;;;11.08;46.01
48810;BME280;40070;47.322;18.784;2023-04-26T06:48:07;999.68;;;11.24;46.17
48810;BME280;40070;47.322;18.784;2023-04-26T06:50:08;999.65;;;11.31;45.33
48810;BME280;40070;47.322;18.784;2023-04-26T06:52:09;999.64;;;11.54;45.46
48810;BME280;40070;47.322;18.784;2023-04-26T06:54:11;999.64;;;11.49;44.54
48810;BME280;40070;47.322;18.784;2023-04-26T06:56:12;999.67;;;11.73;44.38
48810;BME280;40070;47.322;18.784;2023-04-26T06:58:13;999.73;;;11.82;44.48
48810;BME280;40070;47.322;18.784;2023-04-26T07:00:14;999.75;;;11.73;44.38
48810;BME280;40070;47.322;18.784;2023-04-26T07:02:15;999.79;;;11.67;44.51
48810;BME280;40070;47.322;18.784;2023-04-26T07:04:16;999.71;;;11.46;43.90
48810;BME280;40070;47.322;18.784;2023-04-26T07:06:17;999.74;;;11.32;43.52
48810;BME280;40070;47.322;18.784;2023-04-26T07:08:17;999.74;;;11.54;43.84
48810;BME280;40070;47.322;18.784;2023-04-26T07:10:18;999.79;;;11.54;44.11
48810;BME280;40070;47.322;18.784;2023-04-26T07:12:19;999.84;;;11.53;43.82
48810;BME280;40070;47.322;18.784;2023-04-26T07:14:20;999.93;;;11.53;43.01
48810;BME280;40070;47.322;18.784;2023-04-26T07:16:21;999.83;;;11.56;43.89
48810;BME280;40070;47.322;18.784;2023-04-26T07:18:23;999.85;;;11.79;44.06
48810;BME280;40070;47.322;18.784;2023-04-26T07:20:23;999.89;;;11.79;43.62
48810;BME280;40070;47.322;18.784;2023-04-26T07:22:24;999.92;;;11.86;43.38
48810;BME280;40070;47.322;18.784;2023-04-26T07:24:25;1000.01;;;11.89;42.99
48810;BME280;40070;47.322;18.784;2023-04-26T07:26:26;1000.09;;;11.88;43.35
48810;BME280;40070;47.322;18.784;2023-04-26T07:28:27;1000.08;;;12.34;43.25
48810;BME280;40070;47.322;18.784;2023-04-26T07:30:28;1000.06;;;12.54;41.76
48810;BME280;40070;47.322;18.784;2023-04-26T07:32:29;1000.21;;;12.41;40.70
48810;BME280;40070;47.322;18.784;2023-04-26T07:34:30;1000.14;;;12.15;40.26
48810;BME280;40070;47.322;18.784;2023-04-26T07:36:31;1000.17;;;12.21;41.69
48810;BME280;40070;47.322;18.784;2023-04-26T07:38:32;1000.17;;;12.28;40.92
48810;BME280;40070;47.322;18.784;2023-04-26T07:40:33;1000.21;;;12.47;39.74
48810;BME280;40070;47.322;18.784;2023-04-26T07:42:34;1000.25;;;12.77;39.45
48810;BME280;40070;47.322;18.784;2023-04-26T07:44:35;1000.22;;;12.37;39.90
48810;BME280;40070;47.322;18.784;2023-04-26T07:46:36;1000.29;;;12.91;39.12
48810;BME280;40070;47.322;18.784;2023-04-26T07:48:37;1000.21;;;12.59;39.45
48810;BME280;40070;47.322;18.784;2023-04-26T07:50:38;1000.23;;;13.02;39.32
48810;BME280;40070;47.322;18.784;2023-04-26T07:52:39;1000.26;;;12.98;38.16
48810;BME280;40070;47.322;18.784;2023-04-26T07:54:40;1000.17;;;12.99;37.35
48810;BME280;40070;47.322;18.784;2023-04-26T07:56:41;1000.24;;;12.82;38.79
48810;BME280;40070;47.322;18.784;2023-04-26T07:58:42;1000.19;;;12.89;38.13
48810;BME280;40070;47.322;18.784;2023-04-26T08:00:43;1000.25;;;13.16;37.72
48810;BME280;40070;47.322;18.784;2023-04-26T08:02:44;1000.18;;;13.32;37.72
48810;BME280;40070;47.322;18.784;2023-04-26T08:04:48;1000.22;;;13.46;37.63
48810;BME280;40070;47.322;18.784;2023-04-26T08:06:49;1000.27;;;13.67;37.06
48810;BME280;40070;47.322;18.784;2023-04-26T08:08:50;1000.26;;;13.44;37.40
48810;BME280;40070;47.322;18.784;2023-04-26T08:10:51;1000.24;;;13.31;37.51
48810;BME280;40070;47.322;18.784;2023-04-26T08:12:52;1000.19;;;13.31;37.06
48810;BME280;40070;47.322;18.784;2023-04-26T08:14:53;1000.24;;;13.21;37.34
48810;BME280;40070;47.322;18.784;2023-04-26T08:16:54;1000.26;;;13.09;38.08
48810;BME280;40070;47.322;18.784;2023-04-26T08:18:55;1000.29;;;13.43;37.78
48810;BME280;40070;47.322;18.784;2023-04-26T08:20:56;1000.15;;;13.49;37.48
48810;BME280;40070;47.322;18.784;2023-04-26T08:22:57;1000.22;;;13.47;37.35
48810;BME280;40070;47.322;18.784;2023-04-26T08:24:58;1000.25;;;13.81;36.74
48810;BME280;40070;47.322;18.784;2023-04-26T08:26:59;1000.32;;;13.65;36.28
48810;BME280;40070;47.322;18.784;2023-04-26T08:29:00;1000.21;;;13.95;35.86
48810;BME280;40070;47.322;18.784;2023-04-26T08:31:01;1000.28;;;13.98;35.90
48810;BME280;40070;47.322;18.784;2023-04-26T08:33:02;1000.14;;;13.87;36.22
48810;BME280;40070;47.322;18.784;2023-04-26T08:35:03;1000.24;;;13.83;36.93
48810;BME280;40070;47.322;18.784;2023-04-26T08:37:05;1000.31;;;14.15;36.26
48810;BME280;40070;47.322;18.784;2023-04-26T08:39:06;1000.27;;;14.02;35.25
48810;BME280;40070;47.322;18.784;2023-04-26T08:41:08;1000.40;;;13.64;35.53
48810;BME280;40070;47.322;18.784;2023-04-26T08:43:12;1000.33;;;13.43;35.65
48810;BME280;40070;47.322;18.784;2023-04-26T08:45:14;1000.49;;;13.75;36.12
48810;BME280;40070;47.322;18.784;2023-04-26T08:47:17;1000.46;;;13.48;34.71
48810;BME280;40070;47.322;18.784;2023-04-26T08:49:28;1000.51;;;13.33;35.23
48810;BME280;40070;47.322;18.784;2023-04-26T08:51:32;1000.57;;;13.30;36.44
48810;BME280;40070;47.322;18.784;2023-04-26T08:53:33;1000.53;;;13.37;34.80
48810;BME280;40070;47.322;18.784;2023-04-26T08:55:35;1000.52;;;13.63;35.74
48810;BME280;40070;47.322;18.784;2023-04-26T08:57:37;1000.45;;;13.98;34.94
48810;BME280;40070;47.322;18.784;2023-04-26T08:59:38;1000.47;;;14.29;34.25
48810;BME280;40070;47.322;18.784;2023-04-26T09:01:39;1000.52;;;14.55;34.78
48810;BME280;40070;47.322;18.784;2023-04-26T09:03:41;1000.56;;;14.49;34.91
48810;BME280;40070;47.322;18.784;2023-04-26T09:05:42;1000.56;;;14.49;35.07
48810;BME280;40070;47.322;18.784;2023-04-26T09:07:44;1000.56;;;14.39;34.83
48810;BME280;40070;47.322;18.784;2023-04-26T09:09:46;1000.52;;;14.19;34.23
48810;BME280;40070;47.322;18.784;2023-04-26T09:11:58;1000.54;;;14.50;34.43
48810;BME280;40070;47.322;18.784;2023-04-26T09:13:59;1000.53;;;14.67;33.05
48810;BME280;40070;47.322;18.784;2023-04-26T09:16:00;1000.47;;;14.27;32.72
48810;BME280;40070;47.322;18.784;2023-04-26T09:18:20;1000.51;;;13.76;33.75
48810;BME280;40070;47.322;18.784;2023-04-26T09:20:25;1000.57;;;13.81;33.80
48810;BME280;40070;47.322;18.784;2023-04-26T09:22:32;1000.49;;;13.51;33.89
48810;BME280;40070;47.322;18.784;2023-04-26T09:24:49;1000.52;;;13.63;33.73
48810;BME280;40070;47.322;18.784;2023-04-26T09:27:00;1000.52;;;13.50;33.68
48810;BME280;40070;47.322;18.784;2023-04-26T09:29:14;1000.44;;;14.07;34.03
48810;BME280;40070;47.322;18.784;2023-04-26T09:31:57;1000.40;;;14.73;32.50
48810;BME280;40070;47.322;18.784;2023-04-26T09:33:31;1000.43;;;14.99;32.55
48810;BME280;40070;47.322;18.784;2023-04-26T09:35:36;1000.45;;;15.61;32.65
48810;BME280;40070;47.322;18.784;2023-04-26T09:37:37;1000.43;;;15.90;30.41
48810;BME280;40070;47.322;18.784;2023-04-26T09:39:39;1000.44;;;15.93;30.55
48810;BME280;40070;47.322;18.784;2023-04-26T09:41:41;1000.46;;;15.61;31.00
48810;BME280;40070;47.322;18.784;2023-04-26T09:43:41;1000.46;;;15.18;31.43
48810;BME280;40070;47.322;18.784;2023-04-26T09:45:46;1000.57;;;14.62;32.34
48810;BME280;40070;47.322;18.784;2023-04-26T09:47:47;1000.56;;;14.58;32.90
48810;BME280;40070;47.322;18.784;2023-04-26T09:49:49;1000.49;;;14.76;33.03
48810;BME280;40070;47.322;18.784;2023-04-26T09:51:59;1000.35;;;15.65;31.83
48810;BME280;40070;47.322;18.784;2023-04-26T09:54:00;1000.47;;;15.56;30.51
48810;BME280;40070;47.322;18.784;2023-04-26T09:56:20;1000.46;;;15.58;30.28
48810;BME280;40070;47.322;18.784;2023-04-26T09:58:17;1000.48;;;16.25;29.87
48810;BME280;40070;47.322;18.784;2023-04-26T10:00:18;1000.43;;;16.37;29.92
48810;BME280;40070;47.322;18.784;2023-04-26T10:02:20;1000.53;;;16.40;30.51
48810;BME280;40070;47.322;18.784;2023-04-26T10:04:21;1000.42;;;15.77;30.19
48810;BME280;40070;47.322;18.784;2023-04-26T10:06:23;1000.42;;;15.58;30.25
48810;BME280;40070;47.322;18.784;2023-04-26T10:08:23;1000.51;;;15.15;30.28
48810;BME280;40070;47.322;18.784;2023-04-26T10:10:24;1000.45;;;15.49;30.30
48810;BME280;40070;47.322;18.784;2023-04-26T10:12:25;1000.51;;;15.66;29.62
48810;BME280;40070;47.322;18.784;2023-04-26T10:14:26;1000.35;;;16.18;29.72
48810;BME280;40070;47.322;18.784;2023-04-26T10:16:27;1000.32;;;16.15;28.79
48810;BME280;40070;47.322;18.784;2023-04-26T10:18:29;1000.34;;;16.20;28.70
48810;BME280;40070;47.322;18.784;2023-04-26T10:20:30;1000.29;;;16.36;27.15
48810;BME280;40070;47.322;18.784;2023-04-26T10:22:33;1000.38;;;16.18;28.23
48810;BME280;40070;47.322;18.784;2023-04-26T10:24:35;1000.50;;;15.12;29.67
48810;BME280;40070;47.322;18.784;2023-04-26T10:26:52;1000.48;;;15.00;30.70
48810;BME280;40070;47.322;18.784;2023-04-26T10:28:53;1000.56;;;14.65;30.91
48810;BME280;40070;47.322;18.784;2023-04-26T10:30:57;1000.50;;;14.27;30.37
48810;BME280;40070;47.322;18.784;2023-04-26T10:35:12;1000.52;;;14.79;30.05
48810;BME280;40070;47.322;18.784;2023-04-26T10:37:14;1000.43;;;15.56;29.49
48810;BME280;40070;47.322;18.784;2023-04-26T10:39:18;1000.32;;;15.63;28.88
48810;BME280;40070;47.322;18.784;2023-04-26T10:41:26;1000.43;;;15.13;28.57
48810;BME280;40070;47.322;18.784;2023-04-26T10:43:28;1000.38;;;15.72;28.91
48810;BME280;40070;47.322;18.784;2023-04-26T10:45:29;1000.37;;;16.00;28.92
48810;BME280;40070;47.322;18.784;2023-04-26T10:47:33;1000.42;;;16.22;28.30
48810;BME280;40070;47.322;18.784;2023-04-26T10:49:44;1000.40;;;16.29;28.19
48810;BME280;40070;47.322;18.784;2023-04-26T10:52:15;1000.44;;;15.54;28.93
48810;BME280;40070;47.322;18.784;2023-04-26T10:54:13;1000.46;;;14.79;29.32
48810;BME280;40070;47.322;18.784;2023-04-26T10:58:39;1000.36;;;15.68;29.68